createdAt,value
2018-03-18T00:00:44.672Z,9.87
2018-03-18T00:03:12.950Z,9.90
2018-03-18T00:05:41.625Z,9.70
2018-03-18T00:08:10.059Z,10.97
2018-03-18T00:10:38.501Z,9.97
2018-03-18T00:13:06.769Z,10.37
2018-03-18T00:15:35.278Z,13.63
2018-03-18T00:18:03.630Z,9.80
2018-03-18T00:20:31.990Z,17.37
2018-03-18T00:23:00.382Z,15.07
2018-03-18T00:25:28.762Z,14.27
2018-03-18T00:27:58.053Z,12.83
2018-03-18T00:30:26.442Z,12.60
2018-03-18T00:32:54.613Z,14.00
2018-03-18T00:35:23.089Z,13.77
2018-03-18T00:37:51.473Z,14.20
2018-03-18T00:40:19.761Z,14.00
2018-03-18T00:42:48.176Z,12.27
2018-03-18T00:45:16.408Z,12.17
2018-03-18T00:47:45.393Z,11.90
2018-03-18T00:50:13.753Z,11.63
2018-03-18T00:52:42.401Z,11.57
2018-03-18T00:55:10.630Z,10.40
2018-03-18T00:57:38.806Z,13.43
2018-03-18T01:00:07.282Z,12.83
2018-03-18T01:02:35.703Z,12.30
2018-03-18T01:05:04.038Z,10.50
2018-03-18T01:07:32.418Z,12.00
2018-03-18T01:10:00.788Z,16.60
2018-03-18T01:12:29.174Z,15.70
2018-03-18T01:14:57.249Z,12.43
2018-03-18T01:17:25.620Z,11.23
2018-03-18T01:19:53.892Z,11.00
2018-03-18T01:22:22.175Z,9.57
2018-03-18T01:24:50.951Z,9.17
2018-03-18T01:27:19.023Z,9.23
2018-03-18T01:29:47.202Z,7.13
2018-03-18T01:32:15.793Z,5.50
2018-03-18T01:34:44.265Z,6.67
2018-03-18T01:37:12.711Z,7.20
2018-03-18T01:39:41.017Z,9.20
2018-03-18T01:42:09.607Z,8.00
2018-03-18T01:44:37.993Z,10.80
2018-03-18T01:47:06.262Z,8.40
2018-03-18T01:49:34.738Z,9.10
2018-03-18T01:52:03.215Z,8.97
2018-03-18T01:54:31.700Z,7.63
2018-03-18T01:57:00.061Z,8.63
2018-03-18T01:59:28.254Z,8.70
2018-03-18T02:01:56.735Z,8.00
2018-03-18T02:04:25.212Z,9.40
2018-03-18T02:06:53.684Z,8.60
2018-03-18T02:09:22.175Z,8.07
2018-03-18T02:11:50.566Z,8.10
2018-03-18T02:14:18.956Z,9.00
2018-03-18T02:16:47.189Z,8.07
2018-03-18T02:19:15.784Z,8.87
2018-03-18T02:21:44.157Z,8.50
2018-03-18T02:24:12.649Z,10.50
2018-03-18T02:26:41.130Z,9.80
2018-03-18T02:29:09.284Z,9.37
2018-03-18T02:31:37.676Z,8.10
2018-03-18T02:34:06.040Z,7.53
2018-03-18T02:36:34.533Z,7.10
2018-03-18T02:39:03.018Z,5.90
2018-03-18T02:41:31.143Z,5.67
2018-03-18T02:43:59.669Z,6.00
2018-03-18T02:46:28.046Z,5.37
2018-03-18T02:48:56.257Z,5.40
2018-03-18T02:51:24.789Z,4.27
2018-03-18T02:53:53.286Z,5.33
2018-03-18T02:56:21.463Z,5.80
2018-03-18T02:58:49.845Z,5.67
2018-03-18T03:01:18.294Z,6.67
2018-03-18T03:03:46.794Z,5.60
2018-03-18T03:06:14.931Z,4.80
2018-03-18T03:08:43.548Z,4.83
2018-03-18T03:11:11.826Z,7.00
2018-03-18T03:13:40.404Z,4.90
2018-03-18T03:16:09.094Z,4.37
2018-03-18T03:18:37.255Z,4.43
2018-03-18T03:21:05.893Z,5.70
2018-03-18T03:23:34.233Z,5.70
2018-03-18T03:26:02.408Z,18.80
2018-03-18T03:28:30.577Z,6.60
2018-03-18T03:30:59.067Z,8.23
2018-03-18T03:33:27.334Z,6.87
2018-03-18T03:35:55.796Z,6.97
2018-03-18T03:38:24.094Z,7.87
2018-03-18T03:40:52.564Z,8.00
2018-03-18T03:43:20.949Z,7.50
2018-03-18T03:45:49.118Z,9.10
2018-03-18T03:48:17.598Z,8.37
2018-03-18T03:50:45.773Z,11.33
2018-03-18T03:53:14.353Z,13.70
2018-03-18T03:55:42.535Z,12.50
2018-03-18T03:58:10.995Z,11.07
2018-03-18T04:00:39.190Z,12.03
2018-03-18T04:03:07.357Z,11.70
2018-03-18T04:05:35.836Z,11.80
2018-03-18T04:08:04.420Z,10.20
2018-03-18T04:10:32.697Z,12.00
2018-03-18T04:13:01.381Z,11.43
2018-03-18T04:15:29.757Z,9.87
2018-03-18T04:17:58.063Z,8.80
2018-03-18T04:20:25.987Z,8.70
2018-03-18T04:22:54.495Z,10.67
2018-03-18T04:25:22.965Z,10.67
2018-03-18T04:27:51.379Z,8.60
2018-03-18T04:30:19.823Z,7.37
2018-03-18T04:32:48.405Z,9.50
2018-03-18T04:35:16.582Z,6.67
2018-03-18T04:37:45.058Z,9.50
2018-03-18T04:40:13.277Z,8.43
2018-03-18T04:42:41.814Z,7.70
2018-03-18T04:45:10.298Z,9.50
2018-03-18T04:47:38.775Z,10.77
2018-03-18T04:50:07.049Z,20.80
2018-03-18T04:52:35.418Z,14.47
2018-03-18T04:55:04.021Z,16.77
2018-03-18T04:57:32.393Z,13.80
2018-03-18T05:00:00.877Z,11.13
2018-03-18T05:02:29.454Z,14.23
2018-03-18T05:04:57.828Z,12.80
2018-03-18T05:07:26.240Z,14.20
2018-03-18T05:09:54.586Z,11.77
2018-03-18T05:12:22.852Z,11.37
2018-03-18T05:14:50.758Z,14.93
2018-03-18T05:17:19.108Z,16.30
2018-03-18T05:19:47.480Z,15.70
2018-03-18T05:22:15.752Z,28.50
2018-03-18T05:24:44.236Z,53.70
2018-03-18T05:27:12.609Z,52.20
2018-03-18T05:29:41.197Z,45.27
2018-03-18T05:32:09.680Z,36.30
2018-03-18T05:34:37.957Z,36.40
2018-03-18T05:37:06.437Z,38.93
2018-03-18T05:39:34.570Z,33.47
2018-03-18T05:42:02.989Z,27.03
2018-03-18T05:44:31.455Z,24.47
2018-03-18T05:46:59.949Z,21.70
2018-03-18T05:49:28.200Z,20.77
2018-03-18T05:51:56.644Z,21.20
2018-03-18T05:54:25.084Z,18.87
2018-03-18T05:56:53.640Z,13.53
2018-03-18T05:59:21.940Z,15.50
2018-03-18T06:01:50.016Z,11.40
2018-03-18T06:04:18.378Z,13.00
2018-03-18T06:06:46.756Z,12.43
2018-03-18T06:09:15.146Z,10.43
2018-03-18T06:11:43.625Z,13.60
2018-03-18T06:14:12.001Z,11.37
2018-03-18T06:16:40.981Z,13.20
2018-03-18T06:19:09.182Z,10.43
2018-03-18T06:21:37.762Z,13.60
2018-03-18T06:24:06.065Z,12.87
2018-03-18T06:26:34.435Z,8.83
2018-03-18T06:29:02.784Z,9.13
2018-03-18T06:31:31.278Z,9.60
2018-03-18T06:33:59.636Z,9.40
2018-03-18T06:36:28.330Z,9.60
2018-03-18T06:38:57.626Z,10.50
2018-03-18T06:41:26.026Z,9.53
2018-03-18T06:43:54.199Z,11.20
2018-03-18T06:46:22.386Z,13.07
2018-03-18T06:48:50.690Z,9.93
2018-03-18T06:51:19.854Z,10.30
2018-03-18T06:53:48.206Z,17.93
2018-03-18T06:56:16.690Z,15.10
2018-03-18T06:58:44.957Z,16.30
2018-03-18T07:01:13.498Z,13.50
2018-03-18T07:03:42.026Z,12.63
2018-03-18T07:06:10.481Z,14.90
2018-03-18T07:08:38.980Z,18.23
2018-03-18T07:11:07.366Z,12.77
2018-03-18T07:13:35.841Z,13.93
2018-03-18T07:16:04.094Z,14.60
2018-03-18T07:18:32.499Z,13.80
2018-03-18T07:21:00.974Z,20.83
2018-03-18T07:23:29.248Z,17.03
2018-03-18T07:25:57.940Z,17.70
2018-03-18T07:28:26.335Z,16.53
2018-03-18T07:30:55.698Z,17.10
2018-03-18T07:33:24.087Z,17.33
2018-03-18T07:35:52.464Z,19.50
2018-03-18T07:38:20.834Z,16.90
2018-03-18T07:40:49.328Z,19.77
2018-03-18T07:43:17.606Z,23.83
2018-03-18T07:45:46.193Z,22.60
2018-03-18T07:48:14.552Z,16.43
2018-03-18T07:50:43.048Z,16.80
2018-03-18T07:53:11.230Z,18.60
2018-03-18T07:55:40.014Z,23.10
2018-03-18T07:58:08.275Z,17.80
2018-03-18T08:00:37.179Z,23.57
2018-03-18T08:03:05.639Z,15.07
2018-03-18T08:05:34.030Z,16.40
2018-03-18T08:08:02.409Z,18.47
2018-03-18T08:10:30.962Z,17.20
2018-03-18T08:12:59.368Z,19.80
2018-03-18T08:15:27.698Z,24.17
2018-03-18T08:17:55.922Z,27.07
2018-03-18T08:20:24.187Z,34.90
2018-03-18T08:22:52.574Z,29.97
2018-03-18T08:25:21.050Z,32.30
2018-03-18T08:27:49.547Z,38.17
2018-03-18T08:30:17.904Z,44.57
2018-03-18T08:32:46.085Z,22.60
2018-03-18T08:35:15.264Z,27.70
2018-03-18T08:37:43.677Z,58.97
2018-03-18T08:40:12.041Z,33.97
2018-03-18T08:42:40.402Z,28.20
2018-03-18T08:45:08.792Z,45.23
2018-03-18T08:47:37.601Z,28.07
2018-03-18T08:50:05.964Z,30.33
2018-03-18T08:52:34.124Z,46.60
2018-03-18T08:55:02.130Z,40.07
2018-03-18T08:57:30.465Z,30.37
2018-03-18T08:59:59.163Z,45.60
2018-03-18T09:02:27.332Z,24.23
2018-03-18T09:04:55.805Z,31.00
2018-03-18T09:07:24.200Z,22.43
2018-03-18T09:09:52.560Z,35.00
2018-03-18T09:12:20.853Z,25.43
2018-03-18T09:14:49.271Z,19.40
2018-03-18T09:17:17.709Z,32.20
2018-03-18T09:19:46.208Z,32.50
2018-03-18T09:22:14.519Z,19.90
2018-03-18T09:24:42.946Z,26.60
2018-03-18T09:27:11.126Z,24.70
2018-03-18T09:29:39.437Z,36.27
2018-03-18T09:32:08.291Z,14.50
2018-03-18T09:34:36.483Z,31.60
2018-03-18T09:37:04.614Z,21.07
2018-03-18T09:39:33.109Z,31.60
2018-03-18T09:42:01.502Z,29.87
2018-03-18T09:44:29.868Z,25.50
2018-03-18T09:46:58.151Z,26.70
2018-03-18T09:49:26.726Z,39.90
2018-03-18T09:51:55.414Z,27.07
2018-03-18T09:54:23.793Z,32.70
2018-03-18T09:56:51.969Z,38.57
2018-03-18T09:59:20.346Z,26.50
2018-03-18T10:01:48.514Z,50.27
2018-03-18T10:04:16.730Z,33.73
2018-03-18T10:06:44.962Z,27.70
2018-03-18T10:09:13.221Z,22.57
2018-03-18T10:11:42.952Z,40.63
2018-03-18T10:14:11.218Z,27.63
2018-03-18T10:16:39.504Z,35.33
2018-03-18T10:19:07.982Z,40.10
2018-03-18T10:21:36.006Z,28.50
2018-03-18T10:24:03.925Z,70.07
2018-03-18T10:26:31.969Z,31.40
2018-03-18T10:29:00.556Z,42.10
2018-03-18T10:31:28.846Z,155.03
2018-03-18T10:33:57.080Z,29.50
2018-03-18T10:36:25.588Z,44.47
2018-03-18T10:38:53.875Z,25.43
2018-03-18T10:41:22.057Z,40.70
2018-03-18T10:43:50.514Z,25.20
2018-03-18T10:46:19.054Z,11.87
2018-03-18T10:48:47.448Z,20.10
2018-03-18T10:51:15.958Z,8.87
2018-03-18T10:53:44.026Z,15.10
2018-03-18T10:56:12.304Z,11.60
2018-03-18T10:58:40.611Z,9.80
2018-03-18T11:01:10.569Z,8.10
2018-03-18T11:03:39.717Z,13.47
2018-03-18T11:06:07.893Z,14.20
2018-03-18T11:08:36.360Z,7.53
2018-03-18T11:11:04.723Z,17.70
2018-03-18T11:13:33.008Z,11.57
2018-03-18T11:16:01.286Z,8.10
2018-03-18T11:18:29.757Z,7.40
2018-03-18T11:20:58.257Z,10.50
2018-03-18T11:23:26.700Z,6.13
2018-03-18T11:25:55.220Z,4.07
2018-03-18T11:28:23.351Z,5.60
2018-03-18T11:30:51.856Z,3.40
2018-03-18T11:33:20.240Z,2.80
2018-03-18T11:35:48.722Z,14.93
2018-03-18T11:38:17.205Z,15.00
2018-03-18T11:40:45.368Z,5.40
2018-03-18T11:43:17.537Z,5.20
2018-03-18T11:45:45.663Z,11.03
2018-03-18T11:48:13.893Z,5.47
2018-03-18T11:50:42.572Z,5.20
2018-03-18T11:53:10.726Z,13.37
2018-03-18T11:55:39.325Z,6.93
2018-03-18T11:58:07.846Z,11.13
2018-03-18T12:00:36.087Z,40.80
2018-03-18T12:03:04.430Z,28.70
2018-03-18T12:05:32.842Z,48.50
2018-03-18T12:08:00.891Z,34.40
2018-03-18T12:10:29.205Z,33.13
2018-03-18T12:12:57.565Z,25.03
2018-03-18T12:15:25.487Z,20.07
2018-03-18T12:17:53.711Z,28.83
2018-03-18T12:20:22.289Z,24.00
2018-03-18T12:22:51.076Z,29.10
2018-03-18T12:25:19.354Z,46.00
2018-03-18T12:27:48.032Z,30.97
2018-03-18T12:30:16.426Z,27.83
2018-03-18T12:32:44.685Z,25.00
2018-03-18T12:35:13.072Z,14.13
2018-03-18T12:37:41.449Z,21.00
2018-03-18T12:43:25.700Z,24.40
2018-03-18T12:45:54.386Z,26.20
2018-03-18T12:48:22.777Z,27.10
2018-03-18T12:50:51.771Z,23.47
2018-03-18T12:53:20.353Z,20.10
2018-03-18T12:55:48.538Z,19.10
2018-03-18T12:58:16.500Z,19.50
2018-03-18T13:00:44.447Z,24.80
2018-03-18T13:03:12.681Z,21.30
2018-03-18T13:05:40.632Z,23.87
2018-03-18T13:08:08.633Z,19.53
2018-03-18T13:10:36.545Z,15.07
2018-03-18T13:13:04.559Z,12.47
2018-03-18T13:15:32.404Z,11.67
2018-03-18T13:18:00.389Z,13.97
2018-03-18T13:20:28.405Z,13.27
2018-03-18T13:22:56.802Z,16.80
2018-03-18T13:25:24.795Z,11.10
2018-03-18T13:27:52.708Z,10.57
2018-03-18T13:30:20.750Z,9.70
2018-03-18T13:32:48.592Z,9.57
2018-03-18T13:35:16.546Z,11.50
2018-03-18T13:37:44.553Z,16.43
2018-03-18T13:40:12.530Z,22.40
2018-03-18T13:42:40.572Z,10.30
2018-03-18T13:45:08.548Z,10.40
2018-03-18T13:47:36.554Z,11.17
2018-03-18T13:50:04.631Z,10.73
2018-03-18T13:52:32.666Z,11.00
2018-03-18T13:55:00.574Z,8.87
2018-03-18T13:57:28.544Z,9.67
2018-03-18T13:59:56.579Z,11.00
2018-03-18T14:02:24.578Z,9.53
2018-03-18T14:04:52.791Z,7.67
2018-03-18T14:07:20.770Z,18.63
2018-03-18T14:09:48.782Z,12.60
2018-03-18T14:12:16.748Z,16.33
2018-03-18T14:14:44.716Z,11.03
2018-03-18T14:17:12.701Z,11.27
2018-03-18T14:19:40.664Z,8.70
2018-03-18T14:22:08.688Z,6.33
2018-03-18T14:24:36.823Z,8.50
2018-03-18T14:27:04.781Z,10.03
2018-03-18T14:29:32.669Z,11.50
2018-03-18T14:32:00.570Z,17.87
2018-03-18T14:34:28.538Z,22.50
2018-03-18T14:36:56.482Z,20.20
2018-03-18T14:39:24.431Z,19.60
2018-03-18T14:41:52.398Z,21.60
2018-03-18T14:44:20.325Z,19.10
2018-03-18T14:46:48.336Z,18.40
2018-03-18T14:49:16.364Z,19.40
2018-03-18T14:51:44.330Z,19.30
2018-03-18T14:54:12.386Z,15.60
2018-03-18T14:56:40.326Z,8.17
2018-03-18T14:59:08.269Z,13.57
2018-03-18T15:01:36.345Z,24.03
2018-03-18T15:04:04.398Z,24.40
2018-03-18T15:06:32.490Z,22.43
2018-03-18T15:09:00.510Z,20.00
2018-03-18T15:11:28.424Z,19.17
2018-03-18T15:13:56.482Z,13.33
2018-03-18T15:16:24.521Z,27.43
2018-03-18T15:18:52.499Z,19.30
2018-03-18T15:21:20.454Z,14.27
2018-03-18T15:23:48.340Z,19.13
2018-03-18T15:26:16.349Z,22.20
2018-03-18T15:28:44.356Z,21.50
2018-03-18T15:31:12.311Z,24.37
2018-03-18T15:33:40.252Z,39.00
2018-03-18T15:36:08.224Z,119.97
2018-03-18T15:38:36.285Z,10.43
2018-03-18T15:41:04.326Z,15.03
2018-03-18T15:43:32.212Z,15.90
2018-03-18T15:46:00.211Z,21.50
2018-03-18T15:48:28.154Z,23.20
2018-03-18T15:50:56.091Z,34.40
2018-03-18T15:53:24.050Z,39.20
2018-03-18T15:55:51.962Z,29.43
2018-03-18T15:58:19.958Z,23.13
2018-03-18T16:00:47.958Z,29.40
2018-03-18T16:03:15.920Z,68.57
2018-03-18T16:05:43.978Z,50.80
2018-03-18T16:08:12.109Z,54.77
2018-03-18T16:10:40.097Z,51.90
2018-03-18T16:13:08.082Z,71.10
2018-03-18T16:15:36.002Z,69.77
2018-03-18T16:18:04.484Z,56.43
2018-03-18T16:20:33.180Z,74.00
2018-03-18T16:23:01.539Z,78.00
2018-03-18T16:25:29.829Z,58.87
2018-03-18T16:27:57.761Z,51.80
2018-03-18T16:30:37.492Z,47.20
2018-03-18T16:33:05.535Z,54.07
2018-03-18T16:35:33.896Z,55.50
2018-03-18T16:38:03.209Z,55.60
2018-03-18T16:40:31.773Z,37.23
2018-03-18T16:43:00.070Z,111.50
2018-03-18T16:45:28.222Z,61.80
2018-03-18T16:47:56.214Z,58.10
2018-03-18T16:50:24.281Z,67.07
2018-03-18T16:52:52.332Z,68.57
2018-03-18T16:55:20.294Z,45.90
2018-03-18T16:57:48.279Z,46.80
2018-03-18T17:00:16.236Z,54.07
2018-03-18T17:02:44.253Z,56.50
2018-03-18T17:05:12.209Z,54.83
2018-03-18T17:07:40.175Z,63.87
2018-03-18T17:10:08.417Z,53.53
2018-03-18T17:12:36.400Z,42.10
2018-03-18T17:15:04.770Z,46.13
2018-03-18T17:17:33.150Z,59.17
2018-03-18T17:20:01.312Z,63.60
2018-03-18T17:22:29.803Z,87.10
2018-03-18T17:24:58.138Z,103.27
2018-03-18T17:27:26.249Z,76.20
2018-03-18T17:29:54.422Z,75.70
2018-03-18T17:32:22.698Z,77.83
2018-03-18T17:34:50.978Z,90.53
2018-03-18T17:37:19.653Z,93.60
2018-03-18T17:39:47.646Z,74.67
2018-03-18T17:42:15.602Z,57.37
2018-03-18T17:44:55.728Z,48.00
2018-03-18T17:47:36.960Z,38.97
2018-03-18T17:50:17.282Z,80.03
2018-03-18T17:52:57.931Z,91.20
2018-03-18T17:55:35.133Z,74.77
2018-03-18T17:58:03.129Z,60.93
2018-03-18T18:00:31.477Z,65.43
2018-03-18T18:02:59.667Z,68.17
2018-03-18T18:05:28.861Z,58.70
2018-03-18T18:07:56.805Z,58.60
2018-03-18T18:10:25.017Z,64.07
2018-03-18T18:12:52.957Z,75.53
2018-03-18T18:15:20.964Z,88.07
2018-03-18T18:17:48.933Z,78.50
2018-03-18T18:20:16.930Z,97.33
2018-03-18T18:22:44.870Z,90.40
2018-03-18T18:25:12.928Z,90.97
2018-03-18T18:27:40.876Z,57.40
2018-03-18T18:30:08.906Z,87.80
2018-03-18T18:32:36.829Z,62.67
2018-03-18T18:35:04.878Z,64.07
2018-03-18T18:37:32.859Z,77.57
2018-03-18T18:40:00.954Z,73.87
2018-03-18T18:42:29.017Z,70.93
2018-03-18T18:44:57.057Z,118.93
2018-03-18T18:47:25.052Z,89.03
2018-03-18T18:49:53.030Z,77.03
2018-03-18T18:52:20.998Z,72.50
2018-03-18T18:54:49.000Z,63.37
2018-03-18T18:57:16.993Z,65.77
2018-03-18T18:59:44.983Z,92.60
2018-03-18T19:02:12.996Z,104.03
2018-03-18T19:04:41.010Z,84.80
2018-03-18T19:07:09.065Z,86.17
2018-03-18T19:09:37.137Z,108.47
2018-03-18T19:12:05.343Z,90.70
2018-03-18T19:14:33.311Z,67.70
2018-03-18T19:17:01.343Z,97.33
2018-03-18T19:19:29.331Z,62.83
2018-03-18T19:21:57.322Z,54.60
2018-03-18T19:24:25.295Z,47.90
2018-03-18T19:26:53.288Z,53.20
2018-03-18T19:29:21.214Z,49.57
2018-03-18T19:31:49.164Z,39.47
2018-03-18T19:34:17.130Z,47.00
2018-03-18T19:36:45.155Z,40.77
2018-03-18T19:39:13.303Z,44.50
2018-03-18T19:41:41.410Z,50.33
2018-03-18T19:44:09.417Z,37.97
2018-03-18T19:46:37.460Z,41.23
2018-03-18T19:49:05.546Z,46.10
2018-03-18T19:51:33.623Z,43.13
2018-03-18T19:54:01.607Z,36.87
2018-03-18T19:56:29.638Z,29.43
2018-03-18T19:58:57.607Z,38.20
2018-03-18T20:01:25.675Z,43.47
2018-03-18T20:07:24.562Z,26.20
2018-03-18T20:09:52.537Z,33.17
2018-03-18T20:12:20.682Z,34.17
2018-03-18T20:14:48.657Z,25.50
2018-03-18T20:17:16.675Z,31.43
2018-03-18T20:19:44.692Z,25.60
2018-03-18T20:22:12.735Z,58.53
2018-03-18T20:24:41.738Z,40.27
2018-03-18T20:27:09.746Z,35.03
2018-03-18T20:29:37.668Z,27.70
2018-03-18T20:32:05.615Z,24.30
2018-03-18T20:34:33.502Z,33.60
2018-03-18T20:37:01.509Z,29.57
2018-03-18T20:39:29.546Z,32.07
2018-03-18T20:41:57.596Z,35.33
2018-03-18T20:44:25.651Z,34.43
2018-03-18T20:46:53.654Z,30.77
2018-03-18T20:49:21.642Z,39.30
2018-03-18T20:51:49.615Z,45.33
2018-03-18T20:54:17.602Z,29.00
2018-03-18T20:56:45.613Z,27.87
2018-03-18T20:59:13.606Z,32.37
2018-03-18T21:01:41.641Z,31.67
2018-03-18T21:04:09.657Z,33.57
2018-03-18T21:06:37.617Z,31.40
2018-03-18T21:09:05.662Z,36.57
2018-03-18T21:11:33.547Z,33.73
2018-03-18T21:14:01.849Z,30.03
2018-03-18T21:16:29.831Z,34.27
2018-03-18T21:18:57.823Z,44.03
2018-03-18T21:21:25.755Z,38.90
2018-03-18T21:23:53.811Z,39.73
2018-03-18T21:26:22.905Z,34.70
2018-03-18T21:28:50.838Z,41.87
2018-03-18T21:31:18.840Z,34.13
2018-03-18T21:33:46.777Z,34.50
2018-03-18T21:36:14.623Z,30.73
2018-03-18T21:38:42.546Z,32.63
2018-03-18T21:41:10.516Z,34.37
2018-03-18T21:43:38.453Z,30.07
2018-03-18T21:46:06.442Z,31.03
2018-03-18T21:48:34.410Z,32.20
2018-03-18T21:51:02.462Z,34.57
2018-03-18T21:53:30.394Z,36.13
2018-03-18T21:55:58.412Z,33.37
2018-03-18T21:58:26.458Z,30.83
2018-03-18T22:00:54.450Z,58.03
2018-03-18T22:03:22.466Z,53.50
2018-03-18T22:05:50.442Z,59.80
2018-03-18T22:08:18.444Z,44.73
2018-03-18T22:10:46.417Z,38.37
2018-03-18T22:13:14.378Z,46.60
2018-03-18T22:15:42.578Z,36.43
2018-03-18T22:18:10.560Z,35.13
2018-03-18T22:20:38.493Z,34.27
2018-03-18T22:23:06.405Z,37.10
2018-03-18T22:25:34.429Z,32.50
2018-03-18T22:28:02.418Z,35.10
2018-03-18T22:30:30.404Z,31.97
2018-03-18T22:32:58.411Z,30.20
2018-03-18T22:35:26.458Z,33.20
2018-03-18T22:37:54.510Z,37.90
2018-03-18T22:40:22.543Z,37.00
2018-03-18T22:42:50.567Z,31.07
2018-03-18T22:45:18.557Z,25.70
2018-03-18T22:47:46.526Z,22.97
2018-03-18T22:50:14.704Z,20.20
2018-03-18T22:52:42.841Z,20.00
2018-03-18T22:55:10.841Z,18.60
2018-03-18T22:57:38.873Z,19.37
2018-03-18T23:00:07.017Z,18.80
2018-03-18T23:02:35.100Z,18.93
2018-03-18T23:05:03.132Z,18.63
2018-03-18T23:07:31.073Z,21.17
2018-03-18T23:09:59.150Z,21.77
2018-03-18T23:12:27.069Z,22.67
2018-03-18T23:14:55.001Z,22.97
2018-03-18T23:17:22.993Z,22.23
2018-03-18T23:19:51.011Z,20.43
2018-03-18T23:22:18.952Z,20.37
2018-03-18T23:24:46.889Z,24.27
2018-03-18T23:27:14.837Z,21.80
2018-03-18T23:29:42.865Z,23.37
2018-03-18T23:32:10.891Z,23.23
2018-03-18T23:34:38.924Z,23.20
2018-03-18T23:37:06.874Z,25.40
2018-03-18T23:39:34.886Z,33.80
2018-03-18T23:42:03.022Z,32.17
2018-03-18T23:44:30.983Z,29.77
2018-03-18T23:46:58.913Z,26.80
2018-03-18T23:49:26.856Z,25.77
2018-03-18T23:51:54.864Z,26.27
2018-03-18T23:54:22.860Z,24.77
2018-03-18T23:56:50.842Z,23.67
2018-03-18T23:59:18.814Z,20.97
